Time;durP1;ratioP1;P1;durP2;ratioP2;P2;SDS_P1;SDS_P2;PMS_P1;PMS_P2;Temp;Humidity;BMP_temperature;BMP_pressure;BME280_temperature;BME280_humidity;BME280_pressure;Samples;Min_cycle;Max_cycle;Signal;HPM_P1;HPM_P2
2022/05/09 00:01:22;;;;;;;19.23;10.75;;;;;;;;;;6236489;28;20049;-60
2022/05/09 00:04:23;;;;;;;16.67;11.10;;;;;;;;;;6231865;28;20129;-60
2022/05/09 00:07:24;;;;;;;17.80;10.98;;;;;;;;;;6235038;28;20519;-59
2022/05/09 00:10:26;;;;;;;17.70;10.77;;;;;;;;;;6217075;28;20072;-60
2022/05/09 00:13:27;;;;;;;18.10;10.82;;;;;;;;;;6229234;28;20064;-60
2022/05/09 00:16:33;;;;;;;16.48;11.20;;;;;;;;;;6230331;28;20141;-60
2022/05/09 00:19:34;;;;;;;17.67;10.88;;;;;;;;;;6224965;28;20073;-60
2022/05/09 00:22:52;;;;;;;18.35;10.93;;;;;;;;;;6227261;28;20487;-61
2022/05/09 00:25:53;;;;;;;16.85;11.60;;;;;;;;;;6228396;28;20088;-60
2022/05/09 00:28:54;;;;;;;15.95;11.10;;;;;;;;;;6231149;28;20046;-60
2022/05/09 00:31:57;;;;;;;18.33;11.57;;;;;;;;;;6226528;28;20064;-59
2022/05/09 00:34:58;;;;;;;17.52;11.15;;;;;;;;;;6226820;28;20134;-59
2022/05/09 00:37:59;;;;;;;13.35;9.73;;;;;;;;;;6231764;28;20484;-59
2022/05/09 00:44:27;;;;;;;14.18;9.45;;;;;;;;;;6224671;28;20132;-60
2022/05/09 00:47:27;;;;;;;15.05;9.75;;;;;;;;;;6230517;28;20072;-60
2022/05/09 00:50:31;;;;;;;15.80;10.32;;;;;;;;;;6225017;28;20042;-60
2022/05/09 00:53:34;;;;;;;15.30;9.50;;;;;;;;;;6226809;28;20487;-60
2022/05/09 00:56:42;;;;;;;16.58;9.70;;;;;;;;;;6228830;28;20069;-60
2022/05/09 00:59:43;;;;;;;15.93;9.50;;;;;;;;;;6221534;28;20056;-60
2022/05/09 01:02:49;;;;;;;15.77;9.80;;;;;;;;;;6220147;28;20045;-60
2022/05/09 01:05:50;;;;;;;20.63;10.57;;;;;;;;;;6227686;28;20045;-59
2022/05/09 01:08:51;;;;;;;17.98;10.38;;;;;;;;;;6227617;28;20149;-60
2022/05/09 01:11:52;;;;;;;17.10;10.07;;;;;;;;;;6228010;28;20387;-60
2022/05/09 01:14:54;;;;;;;16.63;10.18;;;;;;;;;;6227110;28;20045;-60
2022/05/09 01:17:55;;;;;;;18.92;10.05;;;;;;;;;;6226915;28;20049;-60
2022/05/09 01:20:56;;;;;;;19.88;11.60;;;;;;;;;;6223702;28;20049;-60
2022/05/09 01:23:57;;;;;;;18.73;11.05;;;;;;;;;;6226615;28;20404;-60
2022/05/09 01:26:58;;;;;;;19.50;10.57;;;;;;;;;;6226230;28;20095;-60
2022/05/09 01:30:14;;;;;;;15.77;10.88;;;;;;;;;;6225757;28;20141;-59
2022/05/09 01:33:26;;;;;;;18.15;11.10;;;;;;;;;;6228636;28;20093;-60
2022/05/09 01:36:30;;;;;;;15.57;10.70;;;;;;;;;;6228447;28;20064;-60
2022/05/09 01:39:32;;;;;;;15.80;10.60;;;;;;;;;;6227332;28;20071;-60
2022/05/09 01:42:35;;;;;;;17.92;11.40;;;;;;;;;;6229930;28;20076;-60
2022/05/09 01:45:36;;;;;;;17.35;11.45;;;;;;;;;;6225665;28;20565;-59
2022/05/09 01:52:00;;;;;;;19.58;11.20;;;;;;;;;;6217151;28;20065;-60
2022/05/09 01:55:00;;;;;;;18.67;10.93;;;;;;;;;;6220590;28;20046;-58
2022/05/09 01:58:01;;;;;;;15.15;10.70;;;;;;;;;;6238293;28;20072;-60
2022/05/09 02:01:03;;;;;;;21.85;11.15;;;;;;;;;;6231221;28;20054;-60
2022/05/09 02:04:04;;;;;;;18.75;10.93;;;;;;;;;;6224717;28;20081;-60
2022/05/09 02:07:09;;;;;;;17.42;10.63;;;;;;;;;;6226509;28;20049;-60
2022/05/09 02:10:10;;;;;;;19.88;10.88;;;;;;;;;;6227491;28;20053;-60
2022/05/09 02:13:11;;;;;;;16.88;9.98;;;;;;;;;;6227392;28;20471;-60
2022/05/09 02:16:12;;;;;;;16.55;10.02;;;;;;;;;;6225886;28;20054;-59
2022/05/09 02:19:13;;;;;;;15.88;10.32;;;;;;;;;;6229223;28;20437;-60
2022/05/09 02:22:14;;;;;;;16.58;10.75;;;;;;;;;;6227508;28;20485;-60
2022/05/09 02:25:29;;;;;;;15.73;10.35;;;;;;;;;;6228634;28;20046;-60
2022/05/09 02:28:30;;;;;;;16.27;11.15;;;;;;;;;;6225860;28;20483;-59
2022/05/09 02:31:31;;;;;;;15.23;9.60;;;;;;;;;;6227986;28;20141;-60
2022/05/09 02:34:32;;;;;;;16.13;11.25;;;;;;;;;;6228556;28;20037;-59
2022/05/09 02:37:33;;;;;;;18.37;9.97;;;;;;;;;;6225095;28;20172;-60
2022/05/09 02:40:34;;;;;;;13.48;9.88;;;;;;;;;;6229167;28;20042;-60
2022/05/09 02:43:34;;;;;;;15.85;9.75;;;;;;;;;;6226513;28;20465;-59
2022/05/09 02:46:36;;;;;;;18.15;9.50;;;;;;;;;;6225739;28;20044;-59
2022/05/09 02:49:36;;;;;;;17.65;9.90;;;;;;;;;;6225892;28;20053;-60
2022/05/09 02:52:37;;;;;;;18.08;9.05;;;;;;;;;;6226659;28;20044;-60
2022/05/09 02:55:38;;;;;;;18.40;9.85;;;;;;;;;;6207976;28;20088;-60
2022/05/09 02:58:39;;;;;;;17.17;9.13;;;;;;;;;;6228369;28;20045;-60
2022/05/09 03:01:39;;;;;;;16.67;9.70;;;;;;;;;;6222197;28;20492;-59
2022/05/09 03:04:40;;;;;;;18.05;10.55;;;;;;;;;;6226093;28;20046;-60
2022/05/09 03:07:41;;;;;;;16.92;9.77;;;;;;;;;;6230748;28;20093;-59
2022/05/09 03:10:42;;;;;;;19.08;10.05;;;;;;;;;;6231565;28;20411;-60
2022/05/09 03:13:42;;;;;;;18.52;10.70;;;;;;;;;;6231992;28;20128;-60
2022/05/09 03:16:43;;;;;;;17.65;10.25;;;;;;;;;;6230193;28;20080;-60
2022/05/09 03:19:44;;;;;;;15.07;9.48;;;;;;;;;;6234858;28;20145;-60
2022/05/09 03:22:45;;;;;;;21.92;9.32;;;;;;;;;;6232297;28;20053;-60
2022/05/09 03:25:46;;;;;;;19.52;10.02;;;;;;;;;;6227758;28;20050;-58
2022/05/09 03:28:47;;;;;;;16.13;9.68;;;;;;;;;;6228036;28;20507;-60
2022/05/09 03:31:52;;;;;;;18.05;9.00;;;;;;;;;;6228243;28;20052;-60
2022/05/09 03:34:54;;;;;;;17.20;8.75;;;;;;;;;;6231746;28;20077;-61
2022/05/09 03:37:55;;;;;;;16.20;8.95;;;;;;;;;;6226678;28;20042;-59
2022/05/09 03:40:55;;;;;;;14.38;8.23;;;;;;;;;;6229471;28;20045;-60
2022/05/09 03:43:56;;;;;;;15.80;8.07;;;;;;;;;;6229986;28;20122;-60
2022/05/09 03:46:57;;;;;;;14.57;8.85;;;;;;;;;;6229881;28;20042;-61
2022/05/09 03:49:57;;;;;;;15.73;8.73;;;;;;;;;;6227645;28;20149;-60
2022/05/09 03:52:58;;;;;;;13.93;8.48;;;;;;;;;;6225120;28;20069;-60
2022/05/09 03:56:00;;;;;;;14.98;8.18;;;;;;;;;;6226581;28;20568;-60
2022/05/09 03:59:00;;;;;;;13.95;8.27;;;;;;;;;;6229209;28;20492;-59
2022/05/09 04:02:01;;;;;;;13.80;8.07;;;;;;;;;;6231240;28;20060;-60
2022/05/09 04:05:02;;;;;;;14.85;8.02;;;;;;;;;;6227936;28;20124;-58
2022/05/09 04:08:07;;;;;;;17.65;8.55;;;;;;;;;;6228498;28;20531;-59
2022/05/09 04:11:08;;;;;;;12.85;7.55;;;;;;;;;;6231873;28;20041;-59
2022/05/09 04:14:08;;;;;;;20.25;8.85;;;;;;;;;;6232814;28;20397;-61
2022/05/09 04:17:10;;;;;;;14.00;8.35;;;;;;;;;;6224913;28;20063;-60
2022/05/09 04:20:11;;;;;;;17.77;8.68;;;;;;;;;;6229334;28;20527;-59
2022/05/09 04:23:12;;;;;;;14.82;8.63;;;;;;;;;;6232032;28;20045;-59
2022/05/09 04:26:13;;;;;;;15.00;8.80;;;;;;;;;;6229589;28;20169;-60
2022/05/09 04:29:14;;;;;;;15.68;9.20;;;;;;;;;;6226732;28;20037;-60
2022/05/09 04:32:15;;;;;;;18.27;9.85;;;;;;;;;;6225898;28;21446;-60
2022/05/09 04:35:20;;;;;;;19.65;11.50;;;;;;;;;;6228117;28;20046;-59
2022/05/09 04:38:22;;;;;;;17.88;10.20;;;;;;;;;;6230083;28;20439;-61
2022/05/09 04:41:24;;;;;;;14.93;9.20;;;;;;;;;;6229477;28;20083;-59
2022/05/09 04:44:24;;;;;;;15.75;9.43;;;;;;;;;;6228297;28;20133;-60
2022/05/09 04:47:27;;;;;;;14.98;8.50;;;;;;;;;;6224714;28;20068;-58
2022/05/09 04:50:28;;;;;;;14.35;8.27;;;;;;;;;;6227959;28;20054;-60
2022/05/09 04:53:29;;;;;;;14.38;8.52;;;;;;;;;;6228377;28;20148;-60
2022/05/09 04:56:29;;;;;;;18.52;8.75;;;;;;;;;;6224621;28;20042;-60
2022/05/09 04:59:30;;;;;;;14.75;9.15;;;;;;;;;;6229863;28;20042;-60
2022/05/09 05:02:30;;;;;;;18.08;8.80;;;;;;;;;;6228923;28;20595;-60
2022/05/09 05:05:31;;;;;;;16.40;9.05;;;;;;;;;;6230206;28;20044;-60
2022/05/09 05:08:35;;;;;;;12.23;8.32;;;;;;;;;;6219012;28;20184;-59
2022/05/09 05:11:37;;;;;;;14.02;8.55;;;;;;;;;;6230734;28;20430;-60
2022/05/09 05:14:37;;;;;;;15.73;8.43;;;;;;;;;;6224019;28;20037;-60
2022/05/09 05:17:38;;;;;;;15.20;7.88;;;;;;;;;;6231537;28;20045;-60
2022/05/09 05:20:39;;;;;;;12.90;8.05;;;;;;;;;;6230746;28;20449;-59
2022/05/09 05:23:39;;;;;;;19.38;8.38;;;;;;;;;;6231667;28;20055;-60
2022/05/09 05:26:40;;;;;;;16.20;7.80;;;;;;;;;;6226403;28;20050;-60
2022/05/09 05:29:41;;;;;;;18.17;8.05;;;;;;;;;;6223419;28;20038;-60
2022/05/09 05:32:42;;;;;;;14.35;8.45;;;;;;;;;;6236566;28;20045;-57
2022/05/09 05:35:43;;;;;;;14.95;8.20;;;;;;;;;;6234057;28;20089;-61
2022/05/09 05:38:44;;;;;;;14.80;8.68;;;;;;;;;;6237911;28;20063;-60
2022/05/09 05:41:45;;;;;;;16.08;9.20;;;;;;;;;;6226017;28;20117;-60
2022/05/09 05:44:48;;;;;;;14.43;9.05;;;;;;;;;;6223049;28;20072;-60
2022/05/09 05:47:50;;;;;;;15.02;9.43;;;;;;;;;;6229275;28;20042;-59
2022/05/09 05:50:52;;;;;;;;;;;;;;;;;;6222060;28;20049;-60
2022/05/09 05:53:54;;;;;;;18.02;9.70;;;;;;;;;;6241276;28;19932;-60
2022/05/09 05:56:54;;;;;;;16.40;9.63;;;;;;;;;;6235485;28;20045;-60
2022/05/09 06:00:00;;;;;;;15.02;9.50;;;;;;;;;;6228600;28;20535;-60
2022/05/09 06:03:00;;;;;;;16.83;10.10;;;;;;;;;;6226370;28;20057;-60
2022/05/09 06:06:01;;;;;;;14.93;8.68;;;;;;;;;;6224682;28;20054;-60
2022/05/09 06:09:02;;;;;;;17.60;9.32;;;;;;;;;;6222783;28;20052;-59
2022/05/09 06:12:03;;;;;;;14.30;9.23;;;;;;;;;;6226437;28;20074;-60
2022/05/09 06:18:25;;;;;;;17.15;10.35;;;;;;;;;;6230272;28;20124;-62
2022/05/09 06:21:26;;;;;;;16.92;10.63;;;;;;;;;;6239799;28;20435;-62
2022/05/09 06:24:27;;;;;;;15.80;10.75;;;;;;;;;;6236770;28;20042;-60
2022/05/09 06:27:28;;;;;;;16.20;10.73;;;;;;;;;;6222797;28;20565;-60
2022/05/09 06:30:29;;;;;;;19.38;11.50;;;;;;;;;;6220657;28;20518;-59
2022/05/09 06:33:29;;;;;;;14.63;9.55;;;;;;;;;;6226865;28;20124;-60
2022/05/09 06:36:36;;;;;;;14.32;9.90;;;;;;;;;;6225167;28;20051;-60
2022/05/09 06:39:37;;;;;;;15.85;10.50;;;;;;;;;;6233485;28;20053;-60
2022/05/09 06:42:38;;;;;;;16.13;10.43;;;;;;;;;;6243668;28;20404;-60
2022/05/09 06:45:39;;;;;;;16.52;10.38;;;;;;;;;;6243429;28;20140;-61
2022/05/09 06:48:40;;;;;;;20.17;11.20;;;;;;;;;;6242406;28;20072;-60
2022/05/09 06:51:40;;;;;;;18.95;9.98;;;;;;;;;;6243463;28;20053;-60
2022/05/09 06:54:41;;;;;;;17.65;11.52;;;;;;;;;;6244181;28;20156;-60
2022/05/09 06:57:44;;;;;;;19.10;11.20;;;;;;;;;;6241830;28;20128;-60
2022/05/09 07:00:45;;;;;;;20.75;12.73;;;;;;;;;;6243628;28;20131;-59
2022/05/09 07:03:47;;;;;;;20.92;13.45;;;;;;;;;;6244316;28;20123;-60
2022/05/09 07:06:48;;;;;;;;;;;;;;;;;;6241213;28;20508;-60
2022/05/09 07:09:48;;;;;;;18.42;12.15;;;;;;;;;;6240895;28;19971;-60
2022/05/09 07:12:52;;;;;;;15.65;11.20;;;;;;;;;;6240857;28;20174;-60
2022/05/09 07:15:57;;;;;;;12.57;7.28;;;;;;;;;;6228677;28;20833;-60
2022/05/09 07:18:58;;;;;;;10.52;5.22;;;;;;;;;;6229772;28;20053;-60
2022/05/09 07:21:59;;;;;;;9.45;6.25;;;;;;;;;;6227286;28;20069;-60
2022/05/09 07:25:02;;;;;;;11.55;5.38;;;;;;;;;;6231292;28;20038;-60
2022/05/09 07:28:03;;;;;;;10.18;5.50;;;;;;;;;;6238041;28;20475;-60
2022/05/09 07:31:05;;;;;;;10.18;5.60;;;;;;;;;;6231856;28;20037;-60
2022/05/09 07:34:06;;;;;;;10.27;5.50;;;;;;;;;;6232163;28;20061;-58
2022/05/09 07:37:06;;;;;;;9.55;4.80;;;;;;;;;;6226036;28;20666;-60
2022/05/09 07:40:11;;;;;;;8.95;4.53;;;;;;;;;;6237771;28;20523;-59
2022/05/09 07:43:17;;;;;;;8.43;4.88;;;;;;;;;;6226251;28;20111;-60
2022/05/09 07:46:17;;;;;;;8.85;4.30;;;;;;;;;;6227961;28;20042;-60
2022/05/09 07:49:18;;;;;;;8.95;3.42;;;;;;;;;;6229089;28;20041;-60
2022/05/09 07:52:18;;;;;;;9.23;4.63;;;;;;;;;;6227365;28;20679;-60
2022/05/09 07:55:20;;;;;;;11.77;5.17;;;;;;;;;;6230247;28;20108;-61
2022/05/09 07:58:21;;;;;;;8.32;4.45;;;;;;;;;;6223710;28;20472;-59
2022/05/09 08:01:21;;;;;;;13.15;6.72;;;;;;;;;;6229273;28;20753;-60
2022/05/09 08:04:23;;;;;;;16.88;7.13;;;;;;;;;;6239684;28;20073;-60
2022/05/09 08:07:24;;;;;;;;;;;;;;;;;;6235770;28;20050;-60
2022/05/09 08:10:25;;;;;;;13.43;5.82;;;;;;;;;;6233909;28;20018;-60
2022/05/09 08:13:29;;;;;;;13.77;6.32;;;;;;;;;;6234236;28;20041;-60
2022/05/09 08:16:30;;;;;;;10.65;5.63;;;;;;;;;;6219434;28;20393;-60
2022/05/09 08:19:31;;;;;;;14.83;6.47;;;;;;;;;;6230869;28;20057;-61
2022/05/09 08:22:33;;;;;;;13.33;6.50;;;;;;;;;;6229035;28;21002;-60
2022/05/09 08:25:36;;;;;;;14.32;5.75;;;;;;;;;;6228681;28;20437;-60
2022/05/09 08:28:36;;;;;;;14.18;6.38;;;;;;;;;;6224225;28;20038;-60
2022/05/09 08:31:37;;;;;;;15.68;6.88;;;;;;;;;;6226976;28;20528;-61
2022/05/09 08:34:37;;;;;;;10.13;5.05;;;;;;;;;;6228839;28;20132;-60
2022/05/09 08:37:38;;;;;;;11.57;5.03;;;;;;;;;;6228135;28;20045;-60
2022/05/09 08:40:43;;;;;;;10.90;4.30;;;;;;;;;;6229410;28;20052;-60
2022/05/09 08:44:19;;;;;;;11.40;4.40;;;;;;;;;;6228588;28;20073;-60
2022/05/09 08:47:55;;;;;;;11.30;4.50;;;;;;;;;;6224145;28;20045;-60
2022/05/09 08:51:19;;;;;;;10.02;4.10;;;;;;;;;;6219831;28;20731;-57
2022/05/09 08:54:21;;;;;;;7.20;3.67;;;;;;;;;;6217938;28;20047;-59
2022/05/09 08:57:39;;;;;;;10.07;4.22;;;;;;;;;;6225633;28;20720;-60
2022/05/09 09:00:39;;;;;;;8.77;3.75;;;;;;;;;;6230004;28;20080;-60
2022/05/09 09:03:48;;;;;;;9.82;4.13;;;;;;;;;;6226664;28;20749;-60
2022/05/09 09:07:03;;;;;;;7.88;3.65;;;;;;;;;;6226644;28;20128;-58
2022/05/09 09:10:36;;;;;;;7.35;3.58;;;;;;;;;;6228515;28;20072;-60
2022/05/09 09:13:52;;;;;;;19.63;9.43;;;;;;;;;;6200053;28;20091;-60
2022/05/09 09:17:24;;;;;;;10.48;4.65;;;;;;;;;;6226096;28;20085;-58
2022/05/09 09:20:31;;;;;;;13.57;5.70;;;;;;;;;;6226806;28;20044;-60
2022/05/09 09:24:09;;;;;;;8.35;3.80;;;;;;;;;;6228986;28;20045;-60
2022/05/09 09:27:25;;;;;;;7.70;3.53;;;;;;;;;;6224822;28;20164;-60
2022/05/09 09:30:27;;;;;;;9.45;3.80;;;;;;;;;;6231531;28;20464;-60
2022/05/09 09:33:27;;;;;;;9.05;3.72;;;;;;;;;;6232230;28;20045;-60
2022/05/09 09:36:39;;;;;;;12.48;3.50;;;;;;;;;;6228452;28;20218;-60
2022/05/09 09:39:39;;;;;;;13.23;3.70;;;;;;;;;;6234596;28;20077;-60
2022/05/09 09:42:41;;;;;;;8.07;3.60;;;;;;;;;;6235008;28;20049;-60
2022/05/09 09:45:54;;;;;;;7.95;3.63;;;;;;;;;;6233428;28;20144;-61
2022/05/09 09:49:07;;;;;;;10.07;3.55;;;;;;;;;;6231736;28;20034;-60
2022/05/09 09:52:25;;;;;;;9.98;3.50;;;;;;;;;;6234242;28;20506;-60
2022/05/09 09:55:29;;;;;;;7.60;3.40;;;;;;;;;;6233536;28;20104;-60
2022/05/09 09:58:30;;;;;;;11.13;3.80;;;;;;;;;;6232570;28;20041;-60
2022/05/09 10:01:32;;;;;;;8.40;3.70;;;;;;;;;;6235772;28;20038;-60
2022/05/09 10:04:33;;;;;;;7.82;3.70;;;;;;;;;;6230533;28;20074;-60
2022/05/09 10:07:35;;;;;;;9.20;3.35;;;;;;;;;;6227991;28;20065;-59
2022/05/09 10:10:54;;;;;;;9.57;3.55;;;;;;;;;;6232080;28;20041;-60
2022/05/09 10:13:57;;;;;;;12.55;3.40;;;;;;;;;;6231311;28;20066;-59
2022/05/09 10:17:25;;;;;;;8.38;3.58;;;;;;;;;;6233138;28;20723;-60
2022/05/09 10:20:34;;;;;;;8.82;3.25;;;;;;;;;;6223017;28;20077;-60
2022/05/09 10:27:17;;;;;;;8.15;3.40;;;;;;;;;;6219321;28;20140;-60
2022/05/09 10:30:17;;;;;;;7.18;3.17;;;;;;;;;;6223767;28;20512;-60
2022/05/09 10:33:39;;;;;;;7.15;3.60;;;;;;;;;;6225899;28;20755;-60
2022/05/09 10:36:54;;;;;;;8.68;3.63;;;;;;;;;;6230442;28;20053;-60
2022/05/09 10:40:04;;;;;;;8.60;3.15;;;;;;;;;;6228992;28;20046;-60
2022/05/09 10:43:24;;;;;;;6.78;3.15;;;;;;;;;;6229350;28;20058;-60
2022/05/09 10:46:37;;;;;;;9.38;3.50;;;;;;;;;;6228619;28;20115;-59
2022/05/09 10:49:52;;;;;;;7.57;3.47;;;;;;;;;;6232037;28;20081;-58
2022/05/09 10:53:14;;;;;;;6.82;3.60;;;;;;;;;;6234295;28;20096;-59
2022/05/09 10:56:38;;;;;;;5.78;3.50;;;;;;;;;;6222738;28;20033;-59
2022/05/09 10:59:42;;;;;;;6.82;3.30;;;;;;;;;;6230598;28;20081;-65
2022/05/09 11:02:51;;;;;;;10.25;3.53;;;;;;;;;;6216115;28;20053;-59
2022/05/09 11:06:18;;;;;;;10.80;4.45;;;;;;;;;;6227120;28;20088;-59
2022/05/09 11:09:47;;;;;;;8.50;3.50;;;;;;;;;;6227236;28;20068;-61
2022/05/09 11:13:10;;;;;;;9.27;3.42;;;;;;;;;;6220623;28;20077;-59
2022/05/09 11:16:23;;;;;;;8.98;3.40;;;;;;;;;;6224047;28;20054;-58
2022/05/09 11:19:35;;;;;;;8.23;3.42;;;;;;;;;;6226041;28;20547;-59
2022/05/09 11:22:42;;;;;;;9.43;3.95;;;;;;;;;;6224232;28;20049;-59
2022/05/09 11:25:52;;;;;;;10.25;3.55;;;;;;;;;;6221031;28;20077;-59
2022/05/09 11:29:14;;;;;;;9.40;3.53;;;;;;;;;;6226461;28;20085;-60
2022/05/09 11:32:41;;;;;;;7.70;3.78;;;;;;;;;;6225010;28;20088;-60
2022/05/09 11:35:43;;;;;;;9.95;3.50;;;;;;;;;;6229962;28;20052;-60
2022/05/09 11:38:54;;;;;;;5.97;3.53;;;;;;;;;;6227012;28;20115;-60
2022/05/09 11:46:17;;;;;;;10.38;3.55;;;;;;;;;;6228792;28;20060;-59
2022/05/09 11:49:17;;;;;;;9.18;3.75;;;;;;;;;;6229124;28;20096;-59
2022/05/09 11:52:21;;;;;;;7.03;3.50;;;;;;;;;;6228611;28;20037;-60
2022/05/09 11:55:24;;;;;;;9.57;3.40;;;;;;;;;;6229658;28;20054;-59
2022/05/09 11:58:28;;;;;;;8.80;3.90;;;;;;;;;;6229232;28;20515;-60
2022/05/09 12:01:57;;;;;;;6.88;3.80;;;;;;;;;;6227063;28;20648;-59
2022/05/09 12:04:57;;;;;;;6.78;3.33;;;;;;;;;;6226936;28;20156;-60
2022/05/09 12:08:38;;;;;;;10.77;3.67;;;;;;;;;;6228216;28;20083;-60
2022/05/09 12:11:48;;;;;;;7.90;3.50;;;;;;;;;;6225036;28;20072;-60
2022/05/09 12:14:50;;;;;;;8.40;3.50;;;;;;;;;;6230207;28;20049;-60
2022/05/09 12:17:54;;;;;;;6.10;3.42;;;;;;;;;;6228345;28;20045;-60
2022/05/09 12:20:55;;;;;;;7.90;3.40;;;;;;;;;;6222507;28;20057;-59
2022/05/09 12:24:19;;;;;;;7.27;3.50;;;;;;;;;;6227908;28;20072;-59
2022/05/09 12:28:03;;;;;;;11.80;5.72;;;;;;;;;;6224321;28;20682;-60
2022/05/09 12:31:25;;;;;;;9.00;3.70;;;;;;;;;;6186879;28;20057;-59
2022/05/09 12:34:41;;;;;;;10.50;3.95;;;;;;;;;;6223564;28;21191;-59
2022/05/09 12:37:45;;;;;;;9.50;3.90;;;;;;;;;;6221404;28;20727;-59
2022/05/09 12:40:46;;;;;;;7.03;3.45;;;;;;;;;;6223189;28;20064;-59
2022/05/09 12:43:50;;;;;;;10.43;4.13;;;;;;;;;;6219956;28;20077;-60
2022/05/09 12:46:54;;;;;;;8.15;3.50;;;;;;;;;;6208846;28;20045;-60
2022/05/09 12:50:01;;;;;;;9.85;3.47;;;;;;;;;;6226370;28;20080;-59
2022/05/09 12:53:06;;;;;;;10.05;3.50;;;;;;;;;;6223121;28;20212;-60
2022/05/09 12:56:17;;;;;;;8.20;3.33;;;;;;;;;;6223664;28;20033;-59
2022/05/09 12:59:19;;;;;;;10.13;3.88;;;;;;;;;;6224294;28;20036;-59
2022/05/09 13:02:20;;;;;;;;;;;;;;;;;;6226729;28;20080;-60
2022/05/09 13:05:38;;;;;;;8.05;3.72;;;;;;;;;;6224127;28;19928;-60
2022/05/09 13:08:39;;;;;;;11.88;4.22;;;;;;;;;;6223557;28;20079;-58
2022/05/09 13:11:40;;;;;;;9.63;4.50;;;;;;;;;;6224838;28;20073;-59
2022/05/09 13:14:47;;;;;;;9.35;3.97;;;;;;;;;;6225316;28;20522;-60
2022/05/09 13:17:54;;;;;;;11.52;4.18;;;;;;;;;;6221238;28;20061;-60
2022/05/09 13:21:02;;;;;;;10.02;4.00;;;;;;;;;;6223769;28;20077;-59
2022/05/09 13:24:06;;;;;;;9.50;3.70;;;;;;;;;;6225291;28;20054;-59
2022/05/09 13:27:06;;;;;;;13.88;3.92;;;;;;;;;;6223242;28;20108;-60
2022/05/09 13:30:08;;;;;;;11.17;3.93;;;;;;;;;;6227096;28;20119;-59
2022/05/09 13:33:15;;;;;;;8.88;3.45;;;;;;;;;;6224329;28;20049;-59
2022/05/09 13:36:23;;;;;;;10.13;3.88;;;;;;;;;;6224091;28;20095;-59
2022/05/09 13:39:29;;;;;;;8.95;3.72;;;;;;;;;;6223446;28;20732;-59
2022/05/09 13:42:32;;;;;;;11.60;3.90;;;;;;;;;;6223500;28;20102;-60
2022/05/09 13:45:33;;;;;;;11.25;4.15;;;;;;;;;;6226680;28;20524;-59
2022/05/09 13:48:35;;;;;;;10.07;4.10;;;;;;;;;;6219451;28;20057;-59
2022/05/09 13:51:49;;;;;;;12.57;4.38;;;;;;;;;;6224966;28;20100;-60
2022/05/09 13:54:53;;;;;;;8.23;3.90;;;;;;;;;;6227376;28;20049;-59
2022/05/09 13:57:55;;;;;;;10.82;3.65;;;;;;;;;;6226311;28;20085;-60
2022/05/09 14:00:58;;;;;;;7.43;3.83;;;;;;;;;;6224641;28;21034;-60
2022/05/09 14:03:59;;;;;;;8.30;4.22;;;;;;;;;;6227716;28;20065;-60
2022/05/09 14:07:37;;;;;;;12.10;4.35;;;;;;;;;;6227806;28;20056;-59
2022/05/09 14:10:37;;;;;;;9.05;3.95;;;;;;;;;;6224332;28;20073;-59
2022/05/09 14:13:46;;;;;;;10.75;3.90;;;;;;;;;;6221444;28;20038;-60
2022/05/09 14:16:57;;;;;;;8.95;3.60;;;;;;;;;;6229571;28;20499;-60
2022/05/09 14:20:01;;;;;;;9.98;3.70;;;;;;;;;;6226322;28;20064;-60
2022/05/09 14:23:03;;;;;;;10.63;3.78;;;;;;;;;;6206009;28;20053;-58
2022/05/09 14:29:41;;;;;;;8.50;3.78;;;;;;;;;;6223292;28;20057;-59
2022/05/09 14:32:50;;;;;;;7.35;4.00;;;;;;;;;;6223048;28;20045;-60
2022/05/09 14:35:52;;;;;;;9.77;4.50;;;;;;;;;;6225644;28;20081;-59
2022/05/09 14:38:55;;;;;;;9.25;4.10;;;;;;;;;;6226077;28;20531;-60
2022/05/09 14:42:17;;;;;;;9.55;4.22;;;;;;;;;;6225204;28;20049;-59
2022/05/09 14:45:30;;;;;;;10.95;4.47;;;;;;;;;;6223026;28;20049;-60
2022/05/09 14:48:35;;;;;;;8.80;3.95;;;;;;;;;;6222500;28;20077;-60
2022/05/09 14:51:35;;;;;;;12.02;4.28;;;;;;;;;;6223789;28;20826;-60
2022/05/09 14:57:25;;;;;;;12.33;4.30;;;;;;;;;;6224923;28;20076;-59
2022/05/09 14:58:20;;;;;;;10.13;4.00;;;;;;;;;;6223106;28;20045;-59
2022/05/09 15:01:24;;;;;;;11.40;4.20;;;;;;;;;;6222683;28;20722;-60
2022/05/09 15:04:26;;;;;;;9.02;4.35;;;;;;;;;;6231439;28;20093;-60
2022/05/09 15:07:27;;;;;;;;;;;;;;;;;;6231226;28;20123;-60
2022/05/09 15:10:29;;;;;;;11.82;4.57;;;;;;;;;;6226326;28;20008;-60
2022/05/09 15:13:34;;;;;;;9.02;4.70;;;;;;;;;;6227554;28;20075;-60
2022/05/09 15:16:35;;;;;;;11.02;4.30;;;;;;;;;;6227602;28;20045;-58
2022/05/09 15:19:36;;;;;;;6.93;4.05;;;;;;;;;;6226802;28;20144;-58
2022/05/09 15:22:37;;;;;;;7.73;3.60;;;;;;;;;;6227461;28;20520;-61
2022/05/09 15:25:41;;;;;;;10.27;4.82;;;;;;;;;;6227947;28;20488;-61
2022/05/09 15:28:42;;;;;;;10.98;5.57;;;;;;;;;;6229783;28;20061;-61
2022/05/09 15:31:43;;;;;;;10.75;4.90;;;;;;;;;;6225224;28;20148;-60
2022/05/09 15:34:44;;;;;;;12.57;5.17;;;;;;;;;;6228765;28;20103;-60
2022/05/09 15:37:45;;;;;;;11.43;5.27;;;;;;;;;;6229997;28;20801;-60
2022/05/09 15:40:52;;;;;;;14.23;5.37;;;;;;;;;;6228525;28;20294;-58
2022/05/09 15:43:58;;;;;;;11.55;5.30;;;;;;;;;;6232627;28;20390;-59
2022/05/09 15:46:58;;;;;;;12.75;5.57;;;;;;;;;;6233192;28;20060;-61
2022/05/09 15:50:00;;;;;;;10.30;4.70;;;;;;;;;;6232600;28;20045;-61
2022/05/09 15:53:01;;;;;;;10.65;4.80;;;;;;;;;;6230189;28;20045;-60
2022/05/09 15:56:03;;;;;;;10.00;4.20;;;;;;;;;;6231877;28;20061;-61
2022/05/09 15:59:05;;;;;;;8.43;4.45;;;;;;;;;;6232589;28;20590;-59
2022/05/09 16:02:08;;;;;;;9.52;4.40;;;;;;;;;;6229418;28;20081;-59
2022/05/09 16:05:09;;;;;;;12.13;5.25;;;;;;;;;;6233490;28;20061;-61
2022/05/09 16:11:29;;;;;;;8.45;4.07;;;;;;;;;;6228507;28;20030;-61
2022/05/09 16:14:32;;;;;;;8.50;4.03;;;;;;;;;;6231476;28;20046;-58
2022/05/09 16:17:34;;;;;;;9.15;4.28;;;;;;;;;;6230905;28;20060;-59
2022/05/09 16:20:34;;;;;;;14.15;5.05;;;;;;;;;;6231514;28;20076;-59
2022/05/09 16:23:36;;;;;;;9.07;4.13;;;;;;;;;;6228958;28;20045;-60
2022/05/09 16:26:37;;;;;;;13.52;4.20;;;;;;;;;;6230129;28;20063;-59
2022/05/09 16:29:39;;;;;;;12.07;4.60;;;;;;;;;;6230813;28;20118;-59
2022/05/09 16:32:41;;;;;;;13.30;5.43;;;;;;;;;;6226975;28;20037;-61
2022/05/09 16:35:41;;;;;;;11.73;5.40;;;;;;;;;;6231552;28;20488;-61
2022/05/09 16:38:43;;;;;;;10.00;4.60;;;;;;;;;;6231288;28;20299;-61
2022/05/09 16:41:44;;;;;;;10.48;5.15;;;;;;;;;;6226335;28;20053;-61
2022/05/09 16:44:54;;;;;;;11.57;5.20;;;;;;;;;;6232316;28;20061;-59
2022/05/09 16:47:55;;;;;;;13.52;5.40;;;;;;;;;;6232394;28;21407;-63
2022/05/09 16:50:55;;;;;;;12.33;5.80;;;;;;;;;;6230620;28;20056;-60
2022/05/09 16:53:56;;;;;;;9.83;4.00;;;;;;;;;;6231361;28;20049;-58
2022/05/09 16:56:56;;;;;;;10.20;4.73;;;;;;;;;;6230488;28;20099;-61
2022/05/09 16:59:57;;;;;;;11.13;4.70;;;;;;;;;;6230739;28;20056;-61
2022/05/09 17:02:58;;;;;;;10.97;4.67;;;;;;;;;;6226593;28;20496;-60
2022/05/09 17:05:59;;;;;;;7.60;3.80;;;;;;;;;;6229346;28;20053;-61
2022/05/09 17:08:59;;;;;;;7.63;4.20;;;;;;;;;;6231752;28;20427;-61
2022/05/09 17:12:02;;;;;;;7.87;4.10;;;;;;;;;;6226830;28;21495;-61
2022/05/09 17:15:06;;;;;;;13.27;5.22;;;;;;;;;;6230271;28;20164;-62
2022/05/09 17:18:08;;;;;;;13.32;5.20;;;;;;;;;;6229460;28;20060;-61
2022/05/09 17:21:10;;;;;;;11.48;4.78;;;;;;;;;;6227676;28;20531;-60
2022/05/09 17:24:10;;;;;;;8.82;4.65;;;;;;;;;;6230942;28;20041;-60
2022/05/09 17:27:14;;;;;;;9.07;4.40;;;;;;;;;;6230271;28;20057;-60
2022/05/09 17:30:27;;;;;;;11.23;4.72;;;;;;;;;;6227308;28;20051;-61
2022/05/09 17:33:28;;;;;;;10.43;4.32;;;;;;;;;;6226415;28;20049;-61
2022/05/09 17:39:52;;;;;;;9.68;4.60;;;;;;;;;;6230828;28;20534;-60
2022/05/09 17:42:52;;;;;;;9.40;4.35;;;;;;;;;;6227071;28;20085;-59
2022/05/09 17:45:53;;;;;;;9.47;4.60;;;;;;;;;;6229395;28;20179;-59
2022/05/09 17:48:54;;;;;;;12.03;5.00;;;;;;;;;;6229114;28;20169;-59
2022/05/09 17:51:55;;;;;;;10.55;4.35;;;;;;;;;;6228700;28;20191;-59
2022/05/09 17:54:56;;;;;;;8.20;4.20;;;;;;;;;;6228707;28;20420;-60
2022/05/09 17:57:58;;;;;;;10.43;4.63;;;;;;;;;;6229875;28;20055;-60
2022/05/09 18:01:00;;;;;;;9.20;4.90;;;;;;;;;;6228140;28;20054;-59
2022/05/09 18:04:02;;;;;;;6.85;4.45;;;;;;;;;;6225683;28;20057;-61
2022/05/09 18:07:03;;;;;;;11.30;5.47;;;;;;;;;;6229187;28;20622;-59
2022/05/09 18:10:05;;;;;;;10.60;4.90;;;;;;;;;;6230271;28;20063;-60
2022/05/09 18:13:06;;;;;;;9.23;5.20;;;;;;;;;;6227078;28;20526;-60
2022/05/09 18:16:09;;;;;;;9.05;4.88;;;;;;;;;;6226858;28;20128;-63
2022/05/09 18:19:10;;;;;;;11.70;4.85;;;;;;;;;;6228363;28;20115;-60
2022/05/09 18:22:11;;;;;;;11.05;5.22;;;;;;;;;;6227889;28;20073;-60
2022/05/09 18:25:15;;;;;;;12.40;4.73;;;;;;;;;;6227981;28;20049;-60
2022/05/09 18:28:16;;;;;;;11.10;5.32;;;;;;;;;;6227655;28;20124;-60
2022/05/09 18:31:18;;;;;;;11.90;5.57;;;;;;;;;;6227487;28;20072;-60
2022/05/09 18:34:27;;;;;;;14.13;5.28;;;;;;;;;;6227433;28;20091;-60
2022/05/09 18:37:37;;;;;;;13.77;5.78;;;;;;;;;;6231948;28;20555;-60
2022/05/09 18:40:38;;;;;;;15.82;7.72;;;;;;;;;;6233981;28;20049;-60
2022/05/09 18:43:39;;;;;;;20.17;9.20;;;;;;;;;;6232734;28;21235;-60